Time,TemperatureF,DewpointF,PressureIn,WindDirection,WindDirectionDegrees,WindSpeedMPH,WindSpeedGustMPH,Humidity,HourlyPrecipIn,Conditions,Clouds,dailyrainin,SoftwareType,DateUTC
2013-07-09 00:03:00,68.8,10.1,29.95,North,0,0.0,0.0,1,0.00,,,0.00,WUHU216HW,2013-07-09 04:03:00,
2013-07-09 00:08:00,68.8,10.1,29.95,North,0,0.0,0.0,1,0.00,,,0.00,WUHU216HW,2013-07-09 04:08:00,
2013-07-09 00:13:00,68.4,9.8,29.95,North,0,0.0,0.0,2,0.00,,,0.00,WUHU216HW,2013-07-09 04:13:00,
2013-07-09 00:18:00,68.4,9.8,29.95,North,0,0.0,0.0,1,0.00,,,0.00,WUHU216HW,2013-07-09 04:18:00,
2013-07-09 00:23:00,68.2,9.6,29.95,North,0,0.0,0.0,1,0.00,,,0.00,WUHU216HW,2013-07-09 04:23:00,
2013-07-09 00:28:00,68.0,9.5,29.95,North,0,0.0,0.0,1,0.00,,,0.00,WUHU216HW,2013-07-09 04:28:00,
2013-07-09 00:33:00,67.9,9.4,29.96,North,0,0.0,0.0,1,0.00,,,0.00,WUHU216HW,2013-07-09 04:33:00,
2013-07-09 00:38:00,67.9,9.4,29.96,North,0,0.0,0.0,1,0.00,,,0.00,WUHU216HW,2013-07-09 04:38:00,
2013-07-09 00:43:00,67.7,9.3,29.96,North,0,0.0,0.0,1,0.00,,,0.00,WUHU216HW,2013-07-09 04:43:00,
2013-07-09 00:48:00,67.7,9.3,29.96,North,0,0.0,0.0,1,0.00,,,0.00,WUHU216HW,2013-07-09 04:48:00,
2013-07-09 00:53:00,67.7,9.3,29.96,North,0,0.0,0.0,1,0.00,,,0.00,WUHU216HW,2013-07-09 04:53:00,
2013-07-09 00:58:00,67.9,9.4,29.96,North,0,0.0,0.0,1,0.00,,,0.00,WUHU216HW,2013-07-09 04:58:00,
2013-07-09 01:03:00,68.0,9.5,29.96,North,0,0.0,0.0,1,0.00,,,0.00,WUHU216HW,2013-07-09 05:03:00,
2013-07-09 01:08:00,68.0,9.5,29.97,North,0,0.0,0.0,1,0.00,,,0.00,WUHU216HW,2013-07-09 05:08:00,
2013-07-09 01:13:00,68.2,9.6,29.97,North,0,0.0,0.0,1,0.00,,,0.00,WUHU216HW,2013-07-09 05:13:00,
2013-07-09 01:18:00,68.2,9.6,29.97,North,0,0.0,0.0,1,0.00,,,0.00,WUHU216HW,2013-07-09 05:18:00,
2013-07-09 01:23:00,68.2,9.6,29.97,North,0,0.0,0.0,1,0.00,,,0.00,WUHU216HW,2013-07-09 05:23:00,
2013-07-09 01:29:00,68.0,9.5,29.97,North,0,0.0,0.0,1,0.00,,,0.00,WUHU216HW,2013-07-09 05:29:00,
2013-07-09 01:34:00,68.0,9.5,29.97,North,0,0.0,0.0,1,0.00,,,0.00,WUHU216HW,2013-07-09 05:34:00,
2013-07-09 01:39:00,68.0,9.5,29.96,North,0,0.0,0.0,1,0.00,,,0.00,WUHU216HW,2013-07-09 05:39:00,
2013-07-09 01:44:00,68.0,9.5,29.96,North,0,0.0,0.0,1,0.00,,,0.00,WUHU216HW,2013-07-09 05:44:00,
2013-07-09 01:49:00,68.0,9.5,29.96,North,0,0.0,0.0,1,0.00,,,0.00,WUHU216HW,2013-07-09 05:49:00,
2013-07-09 01:54:00,68.0,9.5,29.96,North,0,0.0,0.0,1,0.00,,,0.00,WUHU216HW,2013-07-09 05:54:00,
2013-07-09 01:59:00,68.0,9.5,29.96,North,0,0.0,0.0,1,0.00,,,0.00,WUHU216HW,2013-07-09 05:59:00,
2013-07-09 02:04:00,68.0,9.5,29.96,North,0,0.0,0.0,1,0.00,,,0.00,WUHU216HW,2013-07-09 06:04:00,
2013-07-09 02:09:00,68.0,9.5,29.96,North,0,0.0,0.0,1,0.00,,,0.00,WUHU216HW,2013-07-09 06:09:00,
2013-07-09 02:14:00,68.0,9.5,29.96,North,0,0.0,0.0,1,0.00,,,0.00,WUHU216HW,2013-07-09 06:14:00,
2013-07-09 02:19:00,68.2,9.6,29.96,North,0,0.0,0.0,1,0.00,,,0.00,WUHU216HW,2013-07-09 06:19:00,
2013-07-09 02:24:00,68.2,9.6,29.96,North,0,0.0,0.0,1,0.00,,,0.00,WUHU216HW,2013-07-09 06:24:00,
2013-07-09 02:29:00,68.4,9.8,29.96,North,0,0.0,0.0,1,0.00,,,0.00,WUHU216HW,2013-07-09 06:29:00,
2013-07-09 02:34:00,68.4,9.8,29.95,North,0,0.0,0.0,1,0.00,,,0.00,WUHU216HW,2013-07-09 06:34:00,
2013-07-09 02:39:00,68.4,9.8,29.95,North,0,0.0,0.0,1,0.00,,,0.00,WUHU216HW,2013-07-09 06:39:00,
2013-07-09 02:44:00,68.2,9.6,29.95,North,0,0.0,0.0,1,0.00,,,0.00,WUHU216HW,2013-07-09 06:44:00,
2013-07-09 02:49:00,68.2,9.6,29.95,North,0,0.0,0.0,1,0.00,,,0.00,WUHU216HW,2013-07-09 06:49:00,
2013-07-09 02:54:00,68.2,9.6,29.96,North,0,0.0,0.0,1,0.00,,,0.00,WUHU216HW,2013-07-09 06:54:00,
2013-07-09 02:59:00,68.0,9.5,29.96,North,0,0.0,0.0,1,0.00,,,0.00,WUHU216HW,2013-07-09 06:59:00,
2013-07-09 03:04:00,68.0,9.5,29.95,North,0,0.0,0.0,1,0.00,,,0.00,WUHU216HW,2013-07-09 07:04:00,
2013-07-09 03:09:00,68.0,9.5,29.95,North,0,0.0,0.0,1,0.00,,,0.00,WUHU216HW,2013-07-09 07:09:00,
2013-07-09 03:14:00,68.2,9.6,29.95,North,0,0.0,0.0,1,0.00,,,0.00,WUHU216HW,2013-07-09 07:14:00,
2013-07-09 03:19:00,68.2,9.6,29.95,North,0,0.0,0.0,1,0.00,,,0.00,WUHU216HW,2013-07-09 07:19:00,
2013-07-09 03:24:00,68.2,9.6,29.95,North,0,0.0,0.0,1,0.00,,,0.00,WUHU216HW,2013-07-09 07:24:00,
2013-07-09 03:29:00,68.4,9.8,29.95,North,0,0.0,0.0,1,0.00,,,0.00,WUHU216HW,2013-07-09 07:29:00,
2013-07-09 03:34:00,68.4,9.8,29.95,North,0,0.0,0.0,1,0.00,,,0.00,WUHU216HW,2013-07-09 07:34:00,
2013-07-09 03:39:00,68.6,9.9,29.95,North,0,0.0,0.0,1,0.00,,,0.00,WUHU216HW,2013-07-09 07:39:00,
2013-07-09 03:44:00,68.6,9.9,29.95,North,0,0.0,0.0,1,0.00,,,0.00,WUHU216HW,2013-07-09 07:44:00,
2013-07-09 03:52:00,68.6,9.9,29.95,North,0,0.0,0.0,1,0.00,,,0.00,WUHU216HW,2013-07-09 07:52:00,
2013-07-09 03:56:00,68.6,9.9,29.95,North,0,0.0,0.0,1,0.00,,,0.00,WUHU216HW,2013-07-09 07:56:00,
2013-07-09 04:01:00,68.6,9.9,29.95,North,0,0.0,0.0,1,0.00,,,0.00,WUHU216HW,2013-07-09 08:01:00,
2013-07-09 04:06:00,68.4,9.8,29.95,North,0,0.0,0.0,1,0.00,,,0.00,WUHU216HW,2013-07-09 08:06:00,
2013-07-09 04:11:00,68.4,9.8,29.95,North,0,0.0,0.0,1,0.00,,,0.00,WUHU216HW,2013-07-09 08:11:00,
2013-07-09 04:16:00,68.4,9.8,29.95,North,0,0.0,0.0,1,0.00,,,0.00,WUHU216HW,2013-07-09 08:16:00,
2013-07-09 04:21:00,68.4,9.8,29.95,North,0,0.0,0.0,1,0.00,,,0.00,WUHU216HW,2013-07-09 08:21:00,
2013-07-09 04:26:00,68.4,9.8,29.95,North,0,0.0,0.0,1,0.00,,,0.00,WUHU216HW,2013-07-09 08:26:00,
2013-07-09 04:31:00,68.4,9.8,29.95,North,0,0.0,0.0,1,0.00,,,0.00,WUHU216HW,2013-07-09 08:31:00,
2013-07-09 04:36:00,68.6,9.9,29.96,North,0,0.0,0.0,1,0.00,,,0.00,WUHU216HW,2013-07-09 08:36:00,
2013-07-09 04:41:00,68.4,9.8,29.96,North,0,0.0,0.0,1,0.00,,,0.00,WUHU216HW,2013-07-09 08:41:00,
2013-07-09 04:46:00,68.4,9.8,29.96,North,0,0.0,0.0,1,0.00,,,0.00,WUHU216HW,2013-07-09 08:46:00,
2013-07-09 04:51:00,68.6,9.9,29.96,North,0,0.0,0.0,1,0.00,,,0.00,WUHU216HW,2013-07-09 08:51:00,
2013-07-09 04:56:00,68.6,9.9,29.96,North,0,0.0,0.0,1,0.00,,,0.00,WUHU216HW,2013-07-09 08:56:00,
2013-07-09 05:01:00,68.6,9.9,29.96,North,0,0.0,0.0,1,0.00,,,0.00,WUHU216HW,2013-07-09 09:01:00,
2013-07-09 05:06:00,68.6,9.9,29.96,North,0,0.0,0.0,1,0.00,,,0.00,WUHU216HW,2013-07-09 09:06:00,
2013-07-09 05:11:00,68.6,9.9,29.96,North,0,0.0,0.0,1,0.00,,,0.00,WUHU216HW,2013-07-09 09:11:00,
2013-07-09 05:16:00,68.4,9.8,29.96,North,0,0.0,0.0,1,0.00,,,0.00,WUHU216HW,2013-07-09 09:16:00,
2013-07-09 05:21:00,68.4,9.8,29.96,North,0,0.0,0.0,1,0.00,,,0.00,WUHU216HW,2013-07-09 09:21:00,
2013-07-09 05:26:00,68.2,9.6,29.97,North,0,0.0,0.0,1,0.00,,,0.00,WUHU216HW,2013-07-09 09:26:00,
2013-07-09 05:31:00,68.2,9.6,29.97,North,0,0.0,0.0,1,0.00,,,0.00,WUHU216HW,2013-07-09 09:31:00,
2013-07-09 05:36:00,68.2,9.6,29.97,North,0,0.0,0.0,1,0.00,,,0.00,WUHU216HW,2013-07-09 09:36:00,
2013-07-09 05:41:00,68.0,9.5,29.97,North,0,0.0,0.0,1,0.00,,,0.00,WUHU216HW,2013-07-09 09:41:00,
2013-07-09 05:46:00,68.0,9.5,29.98,North,0,0.0,0.0,1,0.00,,,0.00,WUHU216HW,2013-07-09 09:46:00,
2013-07-09 05:51:00,68.0,9.5,29.98,North,0,0.0,0.0,1,0.00,,,0.00,WUHU216HW,2013-07-09 09:51:00,
2013-07-09 05:56:00,68.0,9.5,29.98,North,0,0.0,0.0,1,0.00,,,0.00,WUHU216HW,2013-07-09 09:56:00,
2013-07-09 06:02:00,68.0,9.5,29.98,North,0,0.0,0.0,1,0.00,,,0.00,WUHU216HW,2013-07-09 10:02:00,
2013-07-09 06:07:00,68.0,9.5,29.98,North,0,0.0,0.0,1,0.00,,,0.00,WUHU216HW,2013-07-09 10:07:00,
2013-07-09 06:12:00,68.2,9.6,29.99,North,0,0.0,0.0,1,0.00,,,0.00,WUHU216HW,2013-07-09 10:12:00,
2013-07-09 06:17:00,68.2,9.6,29.99,North,0,0.0,0.0,1,0.00,,,0.00,WUHU216HW,2013-07-09 10:17:00,
2013-07-09 06:22:00,68.2,9.6,29.99,North,0,0.0,0.0,1,0.00,,,0.00,WUHU216HW,2013-07-09 10:22:00,
2013-07-09 06:27:00,68.2,9.6,29.99,North,0,0.0,0.0,1,0.00,,,0.00,WUHU216HW,2013-07-09 10:27:00,
2013-07-09 06:32:00,68.2,9.6,30.00,North,0,0.0,0.0,1,0.00,,,0.00,WUHU216HW,2013-07-09 10:32:00,
2013-07-09 06:37:00,68.2,9.6,30.00,North,0,0.0,0.0,1,0.00,,,0.00,WUHU216HW,2013-07-09 10:37:00,
2013-07-09 06:42:00,68.2,9.6,30.00,North,0,0.0,0.0,1,0.00,,,0.00,WUHU216HW,2013-07-09 10:42:00,
2013-07-09 06:47:00,68.2,9.6,30.00,North,0,0.0,0.0,1,0.00,,,0.00,WUHU216HW,2013-07-09 10:47:00,
2013-07-09 06:52:00,68.2,9.6,30.00,North,0,0.0,0.0,1,0.00,,,0.00,WUHU216HW,2013-07-09 10:52:00,
2013-07-09 06:57:00,68.2,9.6,30.00,North,0,0.0,0.0,1,0.00,,,0.00,WUHU216HW,2013-07-09 10:57:00,
2013-07-09 07:02:00,68.4,9.8,30.00,North,0,0.0,0.0,1,0.00,,,0.00,WUHU216HW,2013-07-09 11:02:00,
2013-07-09 07:07:00,68.4,9.8,30.00,North,0,0.0,0.0,1,0.00,,,0.00,WUHU216HW,2013-07-09 11:07:00,
2013-07-09 07:12:00,68.4,9.8,30.01,North,0,0.0,0.0,2,0.00,,,0.00,WUHU216HW,2013-07-09 11:12:00,
2013-07-09 07:17:00,68.4,9.8,30.01,North,0,0.0,0.0,2,0.00,,,0.00,WUHU216HW,2013-07-09 11:17:00,
2013-07-09 07:22:00,68.6,9.9,30.01,North,0,0.0,0.0,1,0.00,,,0.00,WUHU216HW,2013-07-09 11:22:00,
2013-07-09 07:27:00,69.1,10.3,30.01,North,0,0.0,0.0,1,0.00,,,0.00,WUHU216HW,2013-07-09 11:27:00,
2013-07-09 07:32:00,69.8,10.8,30.00,North,0,0.0,0.0,1,0.00,,,0.00,WUHU216HW,2013-07-09 11:32:00,
2013-07-09 07:37:00,70.2,11.1,30.01,North,0,0.0,0.0,2,0.00,,,0.00,WUHU216HW,2013-07-09 11:37:00,
2013-07-09 07:42:00,70.4,11.3,30.00,North,0,0.0,0.0,7,0.00,,,0.00,WUHU216HW,2013-07-09 11:42:00,
2013-07-09 07:47:00,70.4,16.1,30.00,North,0,0.0,0.0,13,0.00,,,0.00,WUHU216HW,2013-07-09 11:47:00,
2013-07-09 07:52:00,70.4,25.8,30.01,North,0,0.0,0.0,19,0.00,,,0.00,WUHU216HW,2013-07-09 11:52:00,
2013-07-09 07:57:00,70.6,29.6,30.01,North,0,0.0,0.0,22,0.00,,,0.00,WUHU216HW,2013-07-09 11:57:00,
2013-07-09 08:02:00,70.6,30.6,30.01,North,0,0.0,0.0,23,0.00,,,0.00,WUHU216HW,2013-07-09 12:02:00,
2013-07-09 08:07:00,70.7,32.8,30.00,North,0,0.0,0.0,25,0.00,,,0.00,WUHU216HW,2013-07-09 12:07:00,
2013-07-09 08:12:00,70.9,36.0,30.01,North,0,0.0,0.0,28,0.00,,,0.00,WUHU216HW,2013-07-09 12:12:00,
2013-07-09 08:17:00,71.3,33.3,30.01,North,0,0.0,0.0,25,0.00,,,0.00,WUHU216HW,2013-07-09 12:17:00,
2013-07-09 08:22:00,71.5,39.2,30.01,North,0,0.0,0.0,31,0.00,,,0.00,WUHU216HW,2013-07-09 12:22:00,
2013-07-09 08:27:00,71.5,42.2,30.01,North,0,0.0,0.0,35,0.00,,,0.00,WUHU216HW,2013-07-09 12:27:00,
2013-07-09 08:33:00,71.6,45.4,30.01,North,0,0.0,0.0,39,0.00,,,0.00,WUHU216HW,2013-07-09 12:33:00,
2013-07-09 08:38:00,71.6,43.8,30.01,North,0,0.0,0.0,37,0.00,,,0.00,WUHU216HW,2013-07-09 12:38:00,
2013-07-09 08:43:00,71.8,44.0,30.01,North,0,0.0,0.0,37,0.00,,,0.00,WUHU216HW,2013-07-09 12:43:00,
2013-07-09 08:48:00,72.2,45.1,30.01,North,0,0.0,0.0,38,0.00,,,0.00,WUHU216HW,2013-07-09 12:48:00,
2013-07-09 08:53:00,72.2,45.8,30.01,North,0,0.0,0.0,39,0.00,,,0.00,WUHU216HW,2013-07-09 12:53:00,
2013-07-09 08:58:00,72.4,44.5,30.00,North,0,0.0,0.0,37,0.00,,,0.00,WUHU216HW,2013-07-09 12:58:00,
2013-07-09 09:03:00,72.5,45.4,30.00,North,0,0.0,0.0,38,0.00,,,0.00,WUHU216HW,2013-07-09 13:03:00,
2013-07-09 09:08:00,72.7,47.6,30.00,North,0,0.0,0.0,41,0.00,,,0.00,WUHU216HW,2013-07-09 13:08:00,
2013-07-09 09:13:00,72.9,49.0,30.00,North,0,0.0,0.0,43,0.00,,,0.00,WUHU216HW,2013-07-09 13:13:00,
2013-07-09 09:18:00,73.1,52.8,30.00,North,0,0.0,0.0,49,0.00,,,0.00,WUHU216HW,2013-07-09 13:18:00,
2013-07-09 09:23:00,73.6,52.0,30.00,North,0,0.0,0.0,47,0.00,,,0.00,WUHU216HW,2013-07-09 13:23:00,
2013-07-09 09:28:00,73.8,52.2,30.00,North,0,0.0,0.0,47,0.00,,,0.00,WUHU216HW,2013-07-09 13:28:00,
2013-07-09 09:33:00,74.5,55.7,30.00,North,0,0.0,0.0,52,0.00,,,0.00,WUHU216HW,2013-07-09 13:33:00,
2013-07-09 09:38:00,74.9,58.2,30.00,North,0,0.0,0.0,56,0.00,,,0.00,WUHU216HW,2013-07-09 13:38:00,
2013-07-09 09:43:00,75.2,58.0,30.00,North,0,0.0,0.0,55,0.00,,,0.00,WUHU216HW,2013-07-09 13:43:00,
2013-07-09 09:48:00,75.6,57.8,30.00,North,0,0.0,0.0,54,0.00,,,0.00,WUHU216HW,2013-07-09 13:48:00,
2013-07-09 09:53:00,75.8,59.5,30.00,North,0,0.0,0.0,57,0.00,,,0.00,WUHU216HW,2013-07-09 13:53:00,
2013-07-09 09:58:00,76.3,59.4,30.00,North,0,0.0,0.0,56,0.00,,,0.00,WUHU216HW,2013-07-09 13:58:00,
2013-07-09 10:03:00,76.3,59.9,30.00,North,0,0.0,0.0,57,0.00,,,0.00,WUHU216HW,2013-07-09 14:03:00,
2013-07-09 10:08:00,76.3,60.9,30.00,North,0,0.0,0.0,59,0.00,,,0.00,WUHU216HW,2013-07-09 14:08:00,
2013-07-09 10:13:00,76.7,61.3,30.00,North,0,0.0,0.0,59,0.00,,,0.00,WUHU216HW,2013-07-09 14:13:00,
2013-07-09 10:18:00,76.9,62.4,30.00,North,0,0.0,0.0,61,0.00,,,0.00,WUHU216HW,2013-07-09 14:18:00,
2013-07-09 10:23:00,77.4,61.9,30.00,North,0,0.0,0.0,59,0.00,,,0.00,WUHU216HW,2013-07-09 14:23:00,
2013-07-09 10:28:00,78.1,65.8,30.00,North,0,0.0,0.0,66,0.00,,,0.00,WUHU216HW,2013-07-09 14:28:00,
2013-07-09 10:33:00,78.1,64.5,30.00,North,0,0.0,0.0,63,0.00,,,0.00,WUHU216HW,2013-07-09 14:33:00,
2013-07-09 10:38:00,78.5,66.2,30.00,North,0,0.0,0.0,66,0.00,,,0.00,WUHU216HW,2013-07-09 14:38:00,
2013-07-09 10:43:00,79.0,65.8,30.00,North,0,0.0,0.0,64,0.00,,,0.00,WUHU216HW,2013-07-09 14:43:00,
2013-07-09 10:48:00,79.4,67.1,30.00,North,0,0.0,0.0,66,0.00,,,0.00,WUHU216HW,2013-07-09 14:48:00,
2013-07-09 10:53:00,79.2,67.2,29.99,North,0,0.0,0.0,67,0.00,,,0.00,WUHU216HW,2013-07-09 14:53:00,
2013-07-09 10:58:00,79.2,67.2,29.99,North,0,0.0,0.0,67,0.00,,,0.00,WUHU216HW,2013-07-09 14:58:00,
2013-07-09 11:04:00,79.4,67.4,29.99,North,0,0.0,0.0,67,0.00,,,0.00,WUHU216HW,2013-07-09 15:04:00,
2013-07-09 11:09:00,79.7,67.3,29.99,North,0,0.0,0.0,66,0.00,,,0.00,WUHU216HW,2013-07-09 15:09:00,
2013-07-09 11:14:00,79.9,68.0,29.99,North,0,0.0,0.0,67,0.00,,,0.00,WUHU216HW,2013-07-09 15:14:00,
2013-07-09 11:19:00,80.3,68.3,29.99,North,0,0.0,0.0,67,0.00,,,0.00,WUHU216HW,2013-07-09 15:19:00,
2013-07-09 11:24:00,81.0,69.0,29.98,North,0,0.0,0.0,67,0.00,,,0.00,WUHU216HW,2013-07-09 15:24:00,
2013-07-09 11:29:00,80.8,68.9,29.99,North,0,0.0,0.0,67,0.00,,,0.00,WUHU216HW,2013-07-09 15:29:00,
2013-07-09 11:34:00,81.2,69.1,29.99,North,0,0.0,0.0,67,0.00,,,0.00,WUHU216HW,2013-07-09 15:34:00,
2013-07-09 11:39:00,81.2,69.1,29.99,North,0,0.0,0.0,67,0.00,,,0.00,WUHU216HW,2013-07-09 15:39:00,
2013-07-09 11:44:00,80.8,68.4,29.98,North,0,0.0,0.0,66,0.00,,,0.00,WUHU216HW,2013-07-09 15:44:00,
2013-07-09 11:50:00,80.3,68.3,29.98,North,0,0.0,0.0,67,0.00,,,0.00,WUHU216HW,2013-07-09 15:50:00,
2013-07-09 11:55:00,80.3,68.3,29.98,North,0,0.0,0.0,67,0.00,,,0.00,WUHU216HW,2013-07-09 15:55:00,
2013-07-09 12:00:00,80.6,68.7,29.98,North,0,0.0,0.0,67,0.00,,,0.00,WUHU216HW,2013-07-09 16:00:00,
2013-07-09 12:05:00,80.8,68.9,29.98,North,0,0.0,0.0,67,0.00,,,0.00,WUHU216HW,2013-07-09 16:05:00,
2013-07-09 12:10:00,81.0,69.0,29.98,North,0,0.0,0.0,67,0.00,,,0.00,WUHU216HW,2013-07-09 16:10:00,
2013-07-09 12:15:00,81.0,69.0,29.98,North,0,0.0,0.0,67,0.00,,,0.00,WUHU216HW,2013-07-09 16:15:00,
2013-07-09 12:20:00,81.7,69.7,29.98,North,0,0.0,0.0,67,0.00,,,0.00,WUHU216HW,2013-07-09 16:20:00,
2013-07-09 12:25:00,82.1,69.9,29.98,North,0,0.0,0.0,67,0.00,,,0.00,WUHU216HW,2013-07-09 16:25:00,
2013-07-09 12:31:00,83.3,71.2,29.98,North,0,0.0,0.0,67,0.00,,,0.00,WUHU216HW,2013-07-09 16:31:00,
2013-07-09 12:36:00,83.2,71.0,29.98,North,0,0.0,0.0,67,0.00,,,0.00,WUHU216HW,2013-07-09 16:36:00,
2013-07-09 12:41:00,83.0,70.8,29.97,North,0,0.0,0.0,67,0.00,,,0.00,WUHU216HW,2013-07-09 16:41:00,
2013-07-09 12:46:00,82.4,70.7,29.97,North,0,0.0,0.0,68,0.00,,,0.00,WUHU216HW,2013-07-09 16:46:00,
2013-07-09 12:51:00,82.1,69.9,29.97,North,0,0.0,0.0,67,0.00,,,0.00,WUHU216HW,2013-07-09 16:51:00,
2013-07-09 12:56:00,82.1,69.0,29.97,North,0,0.0,0.0,65,0.00,,,0.00,WUHU216HW,2013-07-09 16:56:00,
2013-07-09 13:01:00,82.3,70.6,29.96,North,0,0.0,0.0,68,0.00,,,0.00,WUHU216HW,2013-07-09 17:01:00,
2013-07-09 13:06:00,82.4,70.7,29.97,North,0,0.0,0.0,68,0.00,,,0.00,WUHU216HW,2013-07-09 17:06:00,
2013-07-09 13:11:00,83.2,71.0,29.96,North,0,0.0,0.0,67,0.00,,,0.00,WUHU216HW,2013-07-09 17:11:00,
2013-07-09 13:16:00,84.1,71.9,29.96,North,0,0.0,0.0,67,0.00,,,0.00,WUHU216HW,2013-07-09 17:16:00,
2013-07-09 13:21:00,84.6,72.5,29.96,North,0,0.0,0.0,67,0.00,,,0.00,WUHU216HW,2013-07-09 17:21:00,
2013-07-09 13:26:00,84.1,71.0,29.96,North,0,0.0,0.0,65,0.00,,,0.00,WUHU216HW,2013-07-09 17:26:00,
2013-07-09 13:32:00,83.9,71.7,29.96,North,0,0.0,0.0,67,0.00,,,0.00,WUHU216HW,2013-07-09 17:32:00,
2013-07-09 13:37:00,84.2,72.1,29.95,North,0,0.0,0.0,67,0.00,,,0.00,WUHU216HW,2013-07-09 17:37:00,
2013-07-09 13:42:00,84.8,72.6,29.96,North,0,0.0,0.0,67,0.00,,,0.00,WUHU216HW,2013-07-09 17:42:00,
2013-07-09 13:47:00,85.1,72.6,29.95,North,0,0.0,0.0,66,0.00,,,0.00,WUHU216HW,2013-07-09 17:47:00,
2013-07-09 13:52:00,85.3,72.7,29.95,North,0,0.0,0.0,66,0.00,,,0.00,WUHU216HW,2013-07-09 17:52:00,
2013-07-09 13:57:00,85.3,70.4,29.95,North,0,0.0,0.0,61,0.00,,,0.00,WUHU216HW,2013-07-09 17:57:00,
2013-07-09 14:02:00,85.1,72.0,29.95,North,0,0.0,0.0,65,0.00,,,0.00,WUHU216HW,2013-07-09 18:02:00,
2013-07-09 14:07:00,85.3,72.2,29.95,North,0,0.0,0.0,65,0.00,,,0.00,WUHU216HW,2013-07-09 18:07:00,
2013-07-09 14:12:00,85.3,73.2,29.94,North,0,0.0,0.0,67,0.00,,,0.00,WUHU216HW,2013-07-09 18:12:00,
2013-07-09 14:17:00,85.5,73.4,29.94,North,0,0.0,0.0,67,0.00,,,0.00,WUHU216HW,2013-07-09 18:17:00,
2013-07-09 14:22:00,85.1,72.6,29.94,North,0,0.0,0.0,66,0.00,,,0.00,WUHU216HW,2013-07-09 18:22:00,
2013-07-09 14:27:00,85.1,73.0,29.94,North,0,0.0,0.0,67,0.00,,,0.00,WUHU216HW,2013-07-09 18:27:00,
2013-07-09 14:32:00,85.5,72.8,29.94,North,0,0.0,0.0,66,0.00,,,0.00,WUHU216HW,2013-07-09 18:32:00,
2013-07-09 14:37:00,86.6,74.4,29.94,North,0,0.0,0.0,67,0.00,,,0.00,WUHU216HW,2013-07-09 18:37:00,
2013-07-09 14:42:00,87.1,72.1,29.94,North,0,0.0,0.0,61,0.00,,,0.00,WUHU216HW,2013-07-09 18:42:00,
2013-07-09 14:47:00,87.1,72.1,29.94,North,0,0.0,0.0,61,0.00,,,0.00,WUHU216HW,2013-07-09 18:47:00,
2013-07-09 14:52:00,87.3,72.3,29.94,North,0,0.0,0.0,61,0.00,,,0.00,WUHU216HW,2013-07-09 18:52:00,
2013-07-09 14:58:00,87.5,73.8,29.93,North,0,0.0,0.0,64,0.00,,,0.00,WUHU216HW,2013-07-09 18:58:00,
2013-07-09 15:03:00,87.5,73.4,29.93,North,0,0.0,0.0,63,0.00,,,0.00,WUHU216HW,2013-07-09 19:03:00,
2013-07-09 15:08:00,87.1,73.9,29.93,North,0,0.0,0.0,65,0.00,,,0.00,WUHU216HW,2013-07-09 19:08:00,
2013-07-09 15:13:00,86.8,73.1,29.93,North,0,0.0,0.0,64,0.00,,,0.00,WUHU216HW,2013-07-09 19:13:00,
2013-07-09 15:18:00,85.7,73.0,29.93,North,0,0.0,0.0,66,0.00,,,0.00,WUHU216HW,2013-07-09 19:18:00,
2013-07-09 15:24:00,85.1,73.0,29.93,North,0,0.0,0.0,67,0.00,,,0.00,WUHU216HW,2013-07-09 19:24:00,
2013-07-09 15:29:00,84.8,72.6,29.93,North,0,0.0,0.0,67,0.00,,,0.00,WUHU216HW,2013-07-09 19:29:00,
2013-07-09 15:34:00,84.2,72.1,29.93,North,0,0.0,0.0,67,0.00,,,0.00,WUHU216HW,2013-07-09 19:34:00,
2013-07-09 15:39:00,83.3,71.6,29.93,North,0,0.0,0.0,68,0.00,,,0.00,WUHU216HW,2013-07-09 19:39:00,
2013-07-09 15:44:00,82.8,71.1,29.93,North,0,0.0,0.0,68,0.00,,,0.00,WUHU216HW,2013-07-09 19:44:00,
2013-07-09 15:49:00,82.1,70.4,29.93,North,0,0.0,0.0,68,0.00,,,0.00,WUHU216HW,2013-07-09 19:49:00,
2013-07-09 15:54:00,81.9,70.3,29.93,North,0,0.0,0.0,68,0.00,,,0.00,WUHU216HW,2013-07-09 19:54:00,
2013-07-09 15:59:00,81.5,69.9,29.93,North,0,0.0,0.0,68,0.00,,,0.00,WUHU216HW,2013-07-09 19:59:00,
2013-07-09 16:04:00,81.7,70.1,29.93,North,0,0.0,0.0,68,0.00,,,0.00,WUHU216HW,2013-07-09 20:04:00,
2013-07-09 16:09:00,82.3,70.6,29.93,North,0,0.0,0.0,68,0.00,,,0.00,WUHU216HW,2013-07-09 20:09:00,
2013-07-09 16:15:00,82.6,71.4,29.93,North,0,0.0,0.0,69,0.00,,,0.00,WUHU216HW,2013-07-09 20:15:00,
2013-07-09 16:20:00,82.4,71.2,29.93,North,0,0.0,0.0,69,0.00,,,0.00,WUHU216HW,2013-07-09 20:20:00,
2013-07-09 16:25:00,82.1,70.4,29.93,North,0,0.0,0.0,68,0.00,,,0.00,WUHU216HW,2013-07-09 20:25:00,
2013-07-09 16:30:00,81.5,69.9,29.93,North,0,0.0,0.0,68,0.00,,,0.00,WUHU216HW,2013-07-09 20:30:00,
2013-07-09 16:35:00,81.0,69.5,29.93,North,0,0.0,0.0,68,0.00,,,0.00,WUHU216HW,2013-07-09 20:35:00,
2013-07-09 16:40:00,80.6,69.1,29.93,North,0,0.0,0.0,68,0.00,,,0.00,WUHU216HW,2013-07-09 20:40:00,
2013-07-09 16:42:00,80.5,68.9,29.93,North,0,0.0,0.0,68,0.00,,,0.00,WUHU216HW,2013-07-09 20:42:00,
2013-07-09 16:49:00,80.5,68.9,29.93,North,0,0.0,0.0,68,0.00,,,0.00,WUHU216HW,2013-07-09 20:49:00,
2013-07-09 16:56:00,79.9,68.4,29.93,North,0,0.0,0.0,68,0.00,,,0.00,WUHU216HW,2013-07-09 20:56:00,
2013-07-09 17:03:00,79.4,67.9,29.93,North,0,0.0,0.0,68,0.00,,,0.00,WUHU216HW,2013-07-09 21:03:00,
2013-07-09 17:11:00,79.2,67.2,29.92,North,0,0.0,0.0,67,0.00,,,0.00,WUHU216HW,2013-07-09 21:11:00,
2013-07-09 17:19:00,78.7,66.3,29.92,North,0,0.0,0.0,66,0.00,,,0.00,WUHU216HW,2013-07-09 21:19:00,
2013-07-09 17:26:00,78.7,66.3,29.92,North,0,0.0,0.0,66,0.00,,,0.00,WUHU216HW,2013-07-09 21:26:00,
2013-07-09 17:39:00,78.7,65.4,29.93,North,0,0.0,0.0,64,0.00,,,0.00,WUHU216HW,2013-07-09 21:39:00,
2013-07-09 17:44:00,78.5,65.7,29.93,North,0,0.0,0.0,65,0.00,,,0.00,WUHU216HW,2013-07-09 21:44:00,
2013-07-09 17:49:00,78.1,65.0,29.93,North,0,0.0,0.0,64,0.00,,,0.00,WUHU216HW,2013-07-09 21:49:00,
2013-07-09 17:54:00,78.1,65.0,29.93,North,0,0.0,0.0,64,0.00,,,0.00,WUHU216HW,2013-07-09 21:54:00,
2013-07-09 18:00:00,78.1,64.5,29.93,North,0,0.0,0.0,63,0.00,,,0.00,WUHU216HW,2013-07-09 22:00:00,
2013-07-09 18:05:00,77.8,64.2,29.93,North,0,0.0,0.0,63,0.00,,,0.00,WUHU216HW,2013-07-09 22:05:00,
2013-07-09 18:10:00,77.4,63.4,29.93,North,0,0.0,0.0,62,0.00,,,0.00,WUHU216HW,2013-07-09 22:10:00,
2013-07-09 18:15:00,77.2,63.2,29.93,North,0,0.0,0.0,62,0.00,,,0.00,WUHU216HW,2013-07-09 22:15:00,
2013-07-09 18:20:00,76.9,63.3,29.93,North,0,0.0,0.0,63,0.00,,,0.00,WUHU216HW,2013-07-09 22:20:00,
2013-07-09 18:26:00,76.7,63.1,29.93,North,0,0.0,0.0,63,0.00,,,0.00,WUHU216HW,2013-07-09 22:26:00,
2013-07-09 18:31:00,76.5,62.5,29.93,North,0,0.0,0.0,62,0.00,,,0.00,WUHU216HW,2013-07-09 22:31:00,
2013-07-09 18:36:00,76.3,62.8,29.94,North,0,0.0,0.0,63,0.00,,,0.00,WUHU216HW,2013-07-09 22:36:00,
2013-07-09 18:41:00,76.1,62.2,29.94,North,0,0.0,0.0,62,0.00,,,0.00,WUHU216HW,2013-07-09 22:41:00,
2013-07-09 18:46:00,76.1,61.8,29.94,North,0,0.0,0.0,61,0.00,,,0.00,WUHU216HW,2013-07-09 22:46:00,
2013-07-09 18:51:00,76.1,61.8,29.95,North,0,0.0,0.0,61,0.00,,,0.00,WUHU216HW,2013-07-09 22:51:00,
2013-07-09 18:56:00,76.0,61.1,29.95,North,0,0.0,0.0,60,0.00,,,0.00,WUHU216HW,2013-07-09 22:56:00,
2013-07-09 19:01:00,75.6,60.9,29.95,North,0,0.0,0.0,60,0.00,,,0.00,WUHU216HW,2013-07-09 23:01:00,
2013-07-09 19:07:00,75.4,60.7,29.94,North,0,0.0,0.0,60,0.00,,,0.00,WUHU216HW,2013-07-09 23:07:00,
2013-07-09 19:12:00,75.4,60.1,29.94,North,0,0.0,0.0,59,0.00,,,0.00,WUHU216HW,2013-07-09 23:12:00,
2013-07-09 19:17:00,75.2,59.5,29.94,North,0,0.0,0.0,58,0.00,,,0.00,WUHU216HW,2013-07-09 23:17:00,
2013-07-09 19:22:00,75.2,59.0,29.94,North,0,0.0,0.0,57,0.00,,,0.00,WUHU216HW,2013-07-09 23:22:00,
2013-07-09 19:28:00,75.2,58.5,29.94,North,0,0.0,0.0,56,0.00,,,0.00,WUHU216HW,2013-07-09 23:28:00,
2013-07-09 19:33:00,75.4,58.2,29.94,North,0,0.0,0.0,55,0.00,,,0.00,WUHU216HW,2013-07-09 23:33:00,
2013-07-09 19:38:00,75.4,57.2,29.94,North,0,0.0,0.0,53,0.00,,,0.00,WUHU216HW,2013-07-09 23:38:00,
2013-07-09 19:43:00,75.6,56.3,29.94,North,0,0.0,0.0,51,0.00,,,0.00,WUHU216HW,2013-07-09 23:43:00,
2013-07-09 19:48:00,75.6,58.3,29.93,North,0,0.0,0.0,55,0.00,,,0.00,WUHU216HW,2013-07-09 23:48:00,
2013-07-09 19:53:00,75.6,58.8,29.93,North,0,0.0,0.0,56,0.00,,,0.00,WUHU216HW,2013-07-09 23:53:00,
2013-07-09 19:59:00,75.2,59.9,29.93,North,0,0.0,0.0,59,0.00,,,0.00,WUHU216HW,2013-07-09 23:59:00,
2013-07-09 20:05:00,75.2,59.9,29.93,North,0,0.0,0.0,59,0.00,,,0.00,WUHU216HW,2013-07-10 00:05:00,
2013-07-09 20:10:00,74.9,59.6,29.93,North,0,0.0,0.0,59,0.00,,,0.00,WUHU216HW,2013-07-10 00:10:00,
2013-07-09 20:15:00,74.5,58.2,29.93,North,0,0.0,0.0,57,0.00,,,0.00,WUHU216HW,2013-07-10 00:15:00,
2013-07-09 20:21:00,74.0,57.7,29.93,North,0,0.0,0.0,57,0.00,,,0.00,WUHU216HW,2013-07-10 00:21:00,
2013-07-09 20:26:00,73.8,56.5,29.93,North,0,0.0,0.0,55,0.00,,,0.00,WUHU216HW,2013-07-10 00:26:00,
2013-07-09 20:31:00,73.8,55.0,29.93,North,0,0.0,0.0,52,0.00,,,0.00,WUHU216HW,2013-07-10 00:31:00,
2013-07-09 20:36:00,73.6,55.4,29.93,North,0,0.0,0.0,53,0.00,,,0.00,WUHU216HW,2013-07-10 00:36:00,
2013-07-09 20:41:00,73.4,55.2,29.93,North,0,0.0,0.0,53,0.00,,,0.00,WUHU216HW,2013-07-10 00:41:00,
2013-07-09 20:46:00,73.3,53.5,29.94,North,0,0.0,0.0,50,0.00,,,0.00,WUHU216HW,2013-07-10 00:46:00,
2013-07-09 20:51:00,73.3,54.0,29.94,North,0,0.0,0.0,51,0.00,,,0.00,WUHU216HW,2013-07-10 00:51:00,
2013-07-09 20:56:00,73.1,53.3,29.94,North,0,0.0,0.0,50,0.00,,,0.00,WUHU216HW,2013-07-10 00:56:00,
2013-07-09 21:02:00,73.1,52.8,29.95,North,0,0.0,0.0,49,0.00,,,0.00,WUHU216HW,2013-07-10 01:02:00,
2013-07-09 21:07:00,72.9,51.9,29.95,North,0,0.0,0.0,48,0.00,,,0.00,WUHU216HW,2013-07-10 01:07:00,
2013-07-09 21:12:00,72.9,51.4,29.95,North,0,0.0,0.0,47,0.00,,,0.00,WUHU216HW,2013-07-10 01:12:00,
2013-07-09 21:17:00,72.9,51.9,29.95,North,0,0.0,0.0,48,0.00,,,0.00,WUHU216HW,2013-07-10 01:17:00,
2013-07-09 21:22:00,72.9,50.8,29.95,North,0,0.0,0.0,46,0.00,,,0.00,WUHU216HW,2013-07-10 01:22:00,
2013-07-09 21:27:00,72.9,51.9,29.95,North,0,0.0,0.0,48,0.00,,,0.00,WUHU216HW,2013-07-10 01:27:00,
2013-07-09 21:32:00,72.7,52.4,29.95,North,0,0.0,0.0,49,0.00,,,0.00,WUHU216HW,2013-07-10 01:32:00,
2013-07-09 21:37:00,72.5,52.2,29.95,North,0,0.0,0.0,49,0.00,,,0.00,WUHU216HW,2013-07-10 01:37:00,
2013-07-09 21:42:00,72.5,52.2,29.95,North,0,0.0,0.0,49,0.00,,,0.00,WUHU216HW,2013-07-10 01:42:00,
2013-07-09 21:47:00,72.4,51.5,29.95,North,0,0.0,0.0,48,0.00,,,0.00,WUHU216HW,2013-07-10 01:47:00,
2013-07-09 21:52:00,72.4,51.5,29.95,North,0,0.0,0.0,48,0.00,,,0.00,WUHU216HW,2013-07-10 01:52:00,
2013-07-09 21:57:00,72.2,51.9,29.95,North,0,0.0,0.0,49,0.00,,,0.00,WUHU216HW,2013-07-10 01:57:00,
2013-07-09 22:03:00,72.2,51.3,29.95,North,0,0.0,0.0,48,0.00,,,0.00,WUHU216HW,2013-07-10 02:03:00,
2013-07-09 22:08:00,72.0,51.1,29.95,North,0,0.0,0.0,48,0.00,,,0.00,WUHU216HW,2013-07-10 02:08:00,
2013-07-09 22:13:00,72.0,51.1,29.95,North,0,0.0,0.0,48,0.00,,,0.00,WUHU216HW,2013-07-10 02:13:00,
2013-07-09 22:18:00,72.0,51.8,29.95,North,0,0.0,0.0,49,0.00,,,0.00,WUHU216HW,2013-07-10 02:18:00,
2013-07-09 22:23:00,72.0,50.6,29.95,North,0,0.0,0.0,47,0.00,,,0.00,WUHU216HW,2013-07-10 02:23:00,
2013-07-09 22:28:00,71.8,49.2,29.95,North,0,0.0,0.0,45,0.00,,,0.00,WUHU216HW,2013-07-10 02:28:00,
2013-07-09 22:33:00,71.8,49.8,29.95,North,0,0.0,0.0,46,0.00,,,0.00,WUHU216HW,2013-07-10 02:33:00,
2013-07-09 22:38:00,71.8,50.4,29.94,North,0,0.0,0.0,47,0.00,,,0.00,WUHU216HW,2013-07-10 02:38:00,
2013-07-09 22:43:00,71.6,51.4,29.95,North,0,0.0,0.0,49,0.00,,,0.00,WUHU216HW,2013-07-10 02:43:00,
2013-07-09 22:48:00,71.5,51.3,29.94,North,0,0.0,0.0,49,0.00,,,0.00,WUHU216HW,2013-07-10 02:48:00,
2013-07-09 22:53:00,71.3,50.5,29.94,North,0,0.0,0.0,48,0.00,,,0.00,WUHU216HW,2013-07-10 02:53:00,
2013-07-09 22:58:00,71.1,49.1,29.94,North,0,0.0,0.0,46,0.00,,,0.00,WUHU216HW,2013-07-10 02:58:00,
2013-07-09 23:03:00,71.1,49.1,29.94,North,0,0.0,0.0,46,0.00,,,0.00,WUHU216HW,2013-07-10 03:03:00,
2013-07-09 23:08:00,71.1,48.6,29.94,North,0,0.0,0.0,45,0.00,,,0.00,WUHU216HW,2013-07-10 03:08:00,
2013-07-09 23:13:00,70.9,47.8,29.95,North,0,0.0,0.0,44,0.00,,,0.00,WUHU216HW,2013-07-10 03:13:00,
2013-07-09 23:18:00,70.9,48.4,29.95,North,0,0.0,0.0,45,0.00,,,0.00,WUHU216HW,2013-07-10 03:18:00,
2013-07-09 23:23:00,70.9,48.4,29.95,North,0,0.0,0.0,45,0.00,,,0.00,WUHU216HW,2013-07-10 03:23:00,
2013-07-09 23:28:00,70.7,47.6,29.95,North,0,0.0,0.0,44,0.00,,,0.00,WUHU216HW,2013-07-10 03:28:00,
2013-07-09 23:33:00,70.7,47.6,29.95,North,0,0.0,0.0,44,0.00,,,0.00,WUHU216HW,2013-07-10 03:33:00,
2013-07-09 23:38:00,70.7,47.6,29.95,North,0,0.0,0.0,44,0.00,,,0.00,WUHU216HW,2013-07-10 03:38:00,
2013-07-09 23:43:00,70.9,46.6,29.95,North,0,0.0,0.0,42,0.00,,,0.00,WUHU216HW,2013-07-10 03:43:00,
2013-07-09 23:48:00,70.9,46.6,29.95,North,0,0.0,0.0,42,0.00,,,0.00,WUHU216HW,2013-07-10 03:48:00,
2013-07-09 23:53:00,70.9,46.6,29.95,North,0,0.0,0.0,42,0.00,,,0.00,WUHU216HW,2013-07-10 03:53:00,
2013-07-09 23:58:00,70.9,47.8,29.95,North,0,0.0,0.0,44,0.00,,,0.00,WUHU216HW,2013-07-10 03:58:00,